This is the latest recevied weather packets stored in our database for station/object KE2LU. If no packets are shown the sender has not sent any weather packets the latest 10 day(s).
| Time | Temp. | Humidity | Pressure | Rain* | Wind** | Luminosity | Snow |
|---|---|---|---|---|---|---|---|
| 1777846203 | 12.78° C | 53% | 1009.9 hPa | 0 mm | - | - | - |
| 1777845904 | 12.78° C | 52% | 1009.9 hPa | 0 mm | - | - | - |
| 1777844704 | 13.89° C | 46% | 1010.1 hPa | 0 mm | - | - | - |
| 1777842004 | 14.44° C | 42% | 1009.7 hPa | 0 mm | - | - | - |
| 1777841404 | 15° C | 40% | 1009.8 hPa | 0 mm | - | - | - |
| 1777839004 | 13.89° C | 40% | 1010.2 hPa | 0 mm | - | - | - |
| 1777838704 | 14.44° C | 41% | 1010.2 hPa | 0 mm | - | - | - |
| 1777837204 | 14.44° C | 41% | 1010.7 hPa | 0 mm | - | - | - |
| 1777835704 | 12.78° C | 47% | 1011.4 hPa | 0 mm | - | - | - |
| 1777834204 | 12.78° C | 55% | 1011.9 hPa | 0 mm | - | - | - |
| 1777833904 | 12.22° C | 57% | 1011.9 hPa | 0 mm | - | - | - |
| 1777833004 | 11.67° C | 55% | 1012.1 hPa | 0 mm | - | - | - |
| 1777830904 | 11.67° C | 53% | 1012.3 hPa | 0 mm | - | - | - |
| 1777830305 | 11.11° C | 55% | 1012.3 hPa | 0 mm | - | - | - |
| 1777829104 | 12.22° C | 51% | 1012.4 hPa | 0 mm | - | - | - |
| 1777827305 | 12.78° C | 47% | 1012.5 hPa | 0 mm | - | - | - |
| 1777827004 | 12.78° C | 47% | 1012.6 hPa | 0 mm | - | - | - |
| 1777824004 | 11.11° C | 47% | 1013.2 hPa | 0 mm | - | - | - |
| 1777822804 | 11.11° C | 48% | 1013.5 hPa | 0 mm | - | - | - |
| 1777819204 | 10° C | 53% | 1014.1 hPa | 0 mm | - | - | - |
| 1777818304 | 9.44° C | 52% | 1014.3 hPa | 0 mm | - | - | - |
| 1777817705 | 8.89° C | 53% | 1014.5 hPa | 0 mm | - | - | - |
| 1777817405 | 8.89° C | 52% | 1014.5 hPa | 0 mm | - | - | - |
| 1777815304 | 8.33° C | 53% | 1014.6 hPa | 0 mm | - | - | - |
| 1777812004 | 7.22° C | 59% | 1014.7 hPa | 0 mm | - | - | - |
* Rain latest hour (hover to see other rain measurements)
** Current wind speed in m/s (hover to see current wind gust speed)